Eduardo Gomes International Airport
SBEG : now visible

Airfield :











YOU CAN JOIN US ON...

 
LOGIN :

Register | Disclaimer

   EN    FR    IT 

 









Legend :    VFR   Marginal VFR   IFR   Intensive IFR   Very Intensive IFR
Visi :
Ceiling :
>= 8 km
>= 3000ft
5 to 8 km
1000 to 3000 ft
1500m to 5 km
500 to 1000 ft
800 to 1500m
200 to 500 ft
< 800m
< 200 ft
Symbols :   Thunderstorms  Fog  Heavy snow  Heavy precipitations  Wind > 20 kt






- Airport Elevation : 264 ft
- IATA code : MAO


SBEG - Eduardo Gomes International

CURRENT METAR :
  • 011100Z 00000KT 9999 BCFG FEW002 SCT100 23/22 Q1011

EXPIRED METARs :
  • 011016Z 00000KT 5000 BCFG BR FEW002 SCT100 22/22 Q1010
  • 011000Z 00000KT 0500 FG BKN002 23/22 Q1010
  • 010900Z 31003KT 0300 FG BKN002 SCT100 23/22 Q1009

TAF TAF SBEG
Valid from the 01 at 06:00 until the 02 at 06:00 UTC


010300Z 0106/0206 33005KT 9999 FEW025 TX29/0118Z TN24/0206Z
BECMG 0110/0112 4000 BR SCT008
BECMG 0116/0118 35005KT BKN025 FEW030TCU
TEMPO 0118/0123 35015KT 3000 TSRA BKN017 FEW025CB
BECMG 0200/0202 32005KT FEW020 RMK PGY



MET'MAP, your aeronautical weather chart ! - Copyright ORBIFLY December 2007 - Disclaimer

ORBIFLY MET'MAP TEAM :

Programming & Development : Alexandra Zaïnal
Concept & original design : Baudouin d'Aumeries
Assistance for programming : Marc-Olivier Méhu
Technical & hardware support : Manuel Goepfert

Contact : metmap@orbifly.com




SOURCES & CREDITS :

   NOAA       Earth
Advisory